createdAt,value
2023-03-22T00:00:31.858Z,100330.77
2023-03-22T00:03:02.916Z,100332.63
2023-03-22T00:05:33.888Z,100335.00
2023-03-22T00:08:07.130Z,100330.90
2023-03-22T00:10:39.690Z,100327.66
2023-03-22T00:13:12.818Z,100321.36
2023-03-22T00:15:48.857Z,100312.36
2023-03-22T00:18:20.356Z,100310.15
2023-03-22T00:20:52.658Z,100310.98
2023-03-22T00:23:24.489Z,100307.23
2023-03-22T00:25:56.407Z,100307.37
2023-03-22T00:28:27.543Z,100309.05
2023-03-22T00:31:00.115Z,100311.41
2023-03-22T00:33:32.256Z,100306.65
2023-03-22T00:36:06.226Z,100306.27
2023-03-22T00:38:43.817Z,100306.95
2023-03-22T00:41:17.444Z,100305.92
2023-03-22T00:43:50.392Z,100306.07
2023-03-22T00:46:22.630Z,100310.14
2023-03-22T00:48:53.840Z,100307.73
2023-03-22T00:51:25.976Z,100302.32
2023-03-22T00:53:56.878Z,100303.16
2023-03-22T00:56:28.922Z,100299.23
2023-03-22T00:59:04.671Z,100292.10
2023-03-22T01:01:35.652Z,100290.56
2023-03-22T01:04:07.286Z,100283.95
2023-03-22T01:06:38.702Z,100282.06
2023-03-22T01:09:15.177Z,100281.38
2023-03-22T01:11:46.751Z,100283.23
2023-03-22T01:14:17.686Z,100279.49
2023-03-22T01:16:49.316Z,100281.20
2023-03-22T01:19:20.842Z,100280.55
2023-03-22T01:21:52.156Z,100278.71
2023-03-22T01:24:23.314Z,100279.74
2023-03-22T01:26:54.397Z,100277.71
2023-03-22T01:29:26.300Z,100278.05
2023-03-22T01:31:57.283Z,100276.69
2023-03-22T01:34:28.413Z,100280.75
2023-03-22T01:36:59.662Z,100278.38
2023-03-22T01:39:32.159Z,100274.80
2023-03-22T01:42:06.565Z,100273.78
2023-03-22T01:44:40.078Z,100270.04
2023-03-22T01:47:12.667Z,100265.45
2023-03-22T01:49:44.407Z,100262.73
2023-03-22T01:52:17.197Z,100260.17
2023-03-22T01:55:12.791Z,100256.94
2023-03-22T01:57:52.198Z,100255.73
2023-03-22T02:00:29.240Z,100256.41
2023-03-22T02:03:19.153Z,100254.88
2023-03-22T02:05:49.441Z,100251.98
2023-03-22T02:08:21.218Z,100253.16
2023-03-22T02:11:18.061Z,100246.02
2023-03-22T02:14:18.548Z,100246.88
2023-03-22T02:17:04.201Z,100242.78
2023-03-22T02:22:43.570Z,100242.29
2023-03-22T02:25:44.229Z,100237.84
2023-03-22T02:28:23.291Z,100236.81
2023-03-22T02:31:19.928Z,100234.42
2023-03-22T02:34:34.455Z,100236.27
2023-03-22T02:37:32.906Z,100234.24
2023-03-22T02:40:08.850Z,100229.31
2023-03-22T02:42:52.681Z,100230.33
2023-03-22T02:45:31.070Z,100229.64
2023-03-22T02:48:11.055Z,100229.30
2023-03-22T02:50:46.623Z,100228.44
2023-03-22T02:53:22.429Z,100225.23
2023-03-22T02:55:57.061Z,100220.48
2023-03-22T02:58:31.179Z,100220.45
2023-03-22T03:01:07.043Z,100216.70
2023-03-22T03:03:40.869Z,100213.80
2023-03-22T03:06:19.370Z,100207.84
2023-03-22T03:08:52.024Z,100208.49
2023-03-22T03:11:22.987Z,100206.77
2023-03-22T03:13:53.974Z,100205.57
2023-03-22T03:16:29.473Z,100204.70
2023-03-22T03:19:07.999Z,100212.97
2023-03-22T03:21:46.593Z,100212.27
2023-03-22T03:24:28.505Z,100213.14
2023-03-22T03:27:06.064Z,100210.07
2023-03-22T03:29:46.941Z,100207.55
2023-03-22T03:32:25.720Z,100204.14
2023-03-22T03:35:01.065Z,100204.13
2023-03-22T03:37:36.973Z,100202.11
2023-03-22T03:40:14.453Z,100205.48
2023-03-22T03:42:50.770Z,100198.02
2023-03-22T03:45:23.294Z,100196.70
2023-03-22T03:47:58.541Z,100195.17
2023-03-22T03:50:29.941Z,100196.17
2023-03-22T03:53:01.651Z,100196.15
2023-03-22T03:55:33.751Z,100195.64
2023-03-22T03:58:04.761Z,100195.95
2023-03-22T04:00:35.690Z,100193.08
2023-03-22T04:03:32.572Z,100192.55
2023-03-22T04:06:23.966Z,100191.50
2023-03-22T04:08:58.654Z,100195.71
2023-03-22T04:11:32.651Z,100194.36
2023-03-22T04:14:05.464Z,100199.11
2023-03-22T04:16:37.445Z,100196.22
2023-03-22T04:19:08.999Z,100197.92
2023-03-22T04:21:40.886Z,100196.23
2023-03-22T04:24:13.198Z,100192.69
2023-03-22T04:26:45.635Z,100187.63
2023-03-22T04:29:32.372Z,100186.63
2023-03-22T04:32:31.536Z,100189.36
2023-03-22T04:35:02.634Z,100194.63
2023-03-22T04:37:33.893Z,100191.77
2023-03-22T04:40:20.892Z,100194.02
2023-03-22T04:43:04.225Z,100194.39
2023-03-22T04:45:49.006Z,100196.98
2023-03-22T04:48:24.522Z,100196.82
2023-03-22T04:50:55.689Z,100200.41
2023-03-22T04:53:28.431Z,100198.89
2023-03-22T04:56:05.671Z,100196.56
2023-03-22T04:58:42.481Z,100198.09
2023-03-22T05:01:16.077Z,100196.39
2023-03-22T05:03:48.762Z,100197.91
2023-03-22T05:06:24.341Z,100199.98
2023-03-22T05:09:03.388Z,100198.52
2023-03-22T05:11:34.484Z,100196.70
2023-03-22T05:14:31.956Z,100199.21
2023-03-22T05:17:05.435Z,100197.10
2023-03-22T05:19:41.890Z,100196.08
2023-03-22T05:22:16.218Z,100196.23
2023-03-22T05:24:53.083Z,100193.38
2023-03-22T05:27:34.742Z,100193.83
2023-03-22T05:30:27.444Z,100192.50
2023-03-22T05:33:09.655Z,100193.30
2023-03-22T05:35:54.182Z,100190.65
2023-03-22T05:38:29.073Z,100187.58
2023-03-22T05:41:02.933Z,100192.46
2023-03-22T05:43:35.024Z,100193.33
2023-03-22T05:46:10.837Z,100194.92
2023-03-22T05:49:05.070Z,100192.04
2023-03-22T05:51:41.616Z,100193.60
2023-03-22T05:54:15.250Z,100190.84
2023-03-22T05:56:55.252Z,100194.55
2023-03-22T05:59:25.144Z,100193.99
2023-03-22T06:01:56.262Z,100195.52
2023-03-22T06:04:29.745Z,100196.81
2023-03-22T06:07:15.117Z,100197.74
2023-03-22T06:09:50.233Z,100195.86
2023-03-22T06:12:29.617Z,100198.85
2023-03-22T06:15:08.230Z,100200.77
2023-03-22T06:17:39.309Z,100195.05
2023-03-22T06:20:14.644Z,100193.90
2023-03-22T06:22:53.835Z,100192.36
2023-03-22T06:25:24.880Z,100192.20
2023-03-22T06:27:55.852Z,100189.42
2023-03-22T06:30:27.754Z,100189.33
2023-03-22T06:33:14.051Z,100189.66
2023-03-22T06:35:47.381Z,100186.27
2023-03-22T06:38:23.390Z,100184.17
2023-03-22T06:40:54.476Z,100183.52
2023-03-22T06:43:25.556Z,100186.66
2023-03-22T06:46:00.282Z,100189.86
2023-03-22T06:48:36.288Z,100189.43
2023-03-22T06:51:14.384Z,100182.09
2023-03-22T06:53:46.656Z,100179.59
2023-03-22T06:56:17.669Z,100175.84
2023-03-22T06:58:58.166Z,100175.25
2023-03-22T07:01:29.305Z,100174.27
2023-03-22T07:04:01.876Z,100175.73
2023-03-22T07:06:34.167Z,100177.46
2023-03-22T07:09:10.465Z,100170.40
2023-03-22T07:11:42.166Z,100168.42
2023-03-22T07:14:13.254Z,100168.98
2023-03-22T07:16:59.626Z,100164.25
2023-03-22T07:19:32.698Z,100165.20
2023-03-22T07:22:06.646Z,100171.04
2023-03-22T07:24:47.303Z,100164.51
2023-03-22T07:27:26.369Z,100157.43
2023-03-22T07:29:57.764Z,100152.98
2023-03-22T07:32:28.953Z,100149.47
2023-03-22T07:35:08.662Z,100148.77
2023-03-22T07:37:42.166Z,100149.08
2023-03-22T07:40:21.631Z,100151.56
2023-03-22T07:42:55.926Z,100156.45
2023-03-22T07:45:47.362Z,100152.68
2023-03-22T07:48:39.196Z,100150.31
2023-03-22T07:51:32.800Z,100152.79
2023-03-22T07:54:05.736Z,100148.47
2023-03-22T07:56:39.667Z,100145.98
2023-03-22T07:59:11.791Z,100138.13
2023-03-22T08:01:43.411Z,100135.54
2023-03-22T08:04:23.943Z,100137.02
2023-03-22T08:07:10.331Z,100135.44
2023-03-22T08:09:42.892Z,100126.64
2023-03-22T08:12:15.091Z,100127.17
2023-03-22T08:14:50.612Z,100130.09
2023-03-22T08:17:26.647Z,100124.69
2023-03-22T08:19:58.116Z,100126.69
2023-03-22T08:22:39.137Z,100125.48
2023-03-22T08:25:29.771Z,100128.64
2023-03-22T08:28:12.480Z,100127.11
2023-03-22T08:30:44.498Z,100123.87
2023-03-22T08:33:17.465Z,100122.30
2023-03-22T08:35:49.500Z,100122.30
2023-03-22T08:38:21.153Z,100120.17
2023-03-22T08:40:55.010Z,100116.16
2023-03-22T08:43:28.018Z,100115.77
2023-03-22T08:45:59.631Z,100117.35
2023-03-22T08:48:30.966Z,100111.84
2023-03-22T08:51:16.749Z,100117.04
2023-03-22T08:53:58.937Z,100119.33
2023-03-22T08:56:48.448Z,100123.81
2023-03-22T08:59:46.472Z,100128.11
2023-03-22T09:02:29.188Z,100120.95
2023-03-22T09:05:00.691Z,100121.16
2023-03-22T09:07:31.640Z,100120.21
2023-03-22T09:10:25.529Z,100122.31
2023-03-22T09:12:57.273Z,100124.28
2023-03-22T09:15:28.645Z,100128.67
2023-03-22T09:18:11.695Z,100123.48
2023-03-22T09:20:43.283Z,100123.91
2023-03-22T09:23:16.286Z,100116.39
2023-03-22T09:25:48.301Z,100107.39
2023-03-22T09:28:20.953Z,100108.01
2023-03-22T09:30:52.115Z,100097.86
2023-03-22T09:33:24.275Z,100094.70
2023-03-22T09:35:58.209Z,100093.88
2023-03-22T09:38:33.919Z,100095.27
2023-03-22T09:41:09.498Z,100095.02
2023-03-22T09:43:44.559Z,100092.38
2023-03-22T09:46:20.796Z,100086.12
2023-03-22T09:48:53.038Z,100077.76
2023-03-22T09:51:39.029Z,100079.88
2023-03-22T09:54:21.516Z,100075.54
2023-03-22T09:56:57.810Z,100070.55
2023-03-22T09:59:34.762Z,100067.85
2023-03-22T10:02:28.131Z,100078.27
2023-03-22T10:05:13.566Z,100080.11
2023-03-22T10:08:02.808Z,100082.52
2023-03-22T10:10:33.974Z,100080.70
2023-03-22T10:13:14.848Z,100080.59
2023-03-22T10:15:48.443Z,100079.45
2023-03-22T10:18:23.775Z,100076.64
2023-03-22T10:21:01.070Z,100076.80
2023-03-22T10:23:37.177Z,100075.52
2023-03-22T10:26:10.526Z,100074.02
2023-03-22T10:28:44.569Z,100074.02
2023-03-22T10:31:18.330Z,100078.35
2023-03-22T10:33:57.336Z,100074.73
2023-03-22T10:36:34.941Z,100075.51
2023-03-22T10:39:14.520Z,100073.75
2023-03-22T10:41:46.613Z,100072.19
2023-03-22T10:44:20.682Z,100069.29
2023-03-22T10:46:53.477Z,100070.88
2023-03-22T10:49:31.839Z,100064.52
2023-03-22T10:52:10.629Z,100064.20
2023-03-22T10:54:41.587Z,100062.52
2023-03-22T10:57:12.493Z,100059.94
2023-03-22T10:59:48.749Z,100052.98
2023-03-22T11:02:23.681Z,100053.33
2023-03-22T11:04:57.524Z,100047.73
2023-03-22T11:07:36.163Z,100042.18
2023-03-22T11:10:24.678Z,100040.45
2023-03-22T11:13:11.838Z,100043.34
2023-03-22T11:15:52.084Z,100041.43
2023-03-22T11:18:24.039Z,100037.48
2023-03-22T11:21:00.922Z,100039.41
2023-03-22T11:23:35.989Z,100038.74
2023-03-22T11:26:12.359Z,100041.02
2023-03-22T11:28:48.671Z,100038.70
2023-03-22T11:31:21.024Z,100034.69
2023-03-22T11:34:00.305Z,100031.02
2023-03-22T11:36:31.958Z,100026.08
2023-03-22T11:39:07.344Z,100030.95
2023-03-22T11:41:40.785Z,100028.61
2023-03-22T11:44:15.955Z,100030.70
2023-03-22T11:46:51.358Z,100022.04
2023-03-22T11:49:27.156Z,100015.20
2023-03-22T11:52:08.615Z,100008.45
2023-03-22T11:54:43.497Z,100009.23
2023-03-22T11:57:19.831Z,100008.08
2023-03-22T11:59:56.378Z,100007.05
2023-03-22T12:02:31.362Z,100001.52
2023-03-22T12:05:09.476Z,99996.45
2023-03-22T12:07:42.982Z,99994.89
2023-03-22T12:10:22.612Z,99990.90
2023-03-22T12:12:59.444Z,99982.45
2023-03-22T12:15:35.097Z,99977.75
2023-03-22T12:18:13.695Z,99979.33
2023-03-22T12:20:50.712Z,99974.96
2023-03-22T12:23:24.210Z,99974.29
2023-03-22T12:26:01.178Z,99972.93
2023-03-22T12:28:38.538Z,99967.20
2023-03-22T12:31:16.997Z,99964.38
2023-03-22T12:33:51.083Z,99959.42
2023-03-22T12:36:30.381Z,99960.79
2023-03-22T12:39:03.807Z,99959.39
2023-03-22T12:41:40.343Z,99959.05
2023-03-22T12:44:19.118Z,99955.98
2023-03-22T12:46:55.004Z,99955.40
2023-03-22T12:49:44.446Z,99954.86
2023-03-22T12:52:23.254Z,99953.02
2023-03-22T12:54:59.863Z,99951.83
2023-03-22T12:57:32.400Z,99948.24
2023-03-22T13:00:16.397Z,99945.36
2023-03-22T13:02:56.783Z,99947.04
2023-03-22T13:05:30.944Z,99942.89
2023-03-22T13:08:05.432Z,99945.69
2023-03-22T13:11:02.473Z,99944.50
2023-03-22T13:13:49.723Z,99937.93
2023-03-22T13:16:43.305Z,99935.13
2023-03-22T13:19:35.226Z,99930.31
2023-03-22T13:22:29.699Z,99924.94
2023-03-22T13:25:29.156Z,99921.84
2023-03-22T13:28:03.604Z,99924.48
2023-03-22T13:30:37.866Z,99922.08
2023-03-22T13:33:22.206Z,99919.13
2023-03-22T13:35:57.911Z,99920.82
2023-03-22T13:38:28.028Z,99922.77
2023-03-22T13:41:08.098Z,99924.75
2023-03-22T13:43:50.503Z,99921.27
2023-03-22T13:46:51.080Z,99920.41
2023-03-22T13:49:48.201Z,99916.73
2023-03-22T13:52:35.467Z,99913.51
2023-03-22T13:55:18.086Z,99910.77
2023-03-22T13:57:59.043Z,99905.03
2023-03-22T14:00:49.645Z,99905.62
2023-03-22T14:03:39.290Z,99903.80
2023-03-22T14:06:16.003Z,99903.27
2023-03-22T14:08:52.028Z,99901.77
2023-03-22T14:11:32.301Z,99907.02
2023-03-22T14:14:09.910Z,99907.64
2023-03-22T14:16:47.827Z,99906.39
2023-03-22T14:19:25.466Z,99905.27
